CMP319 SMJP-MPTO
Flight info
| Callsign | CMP319 |
|---|---|
| Flight time | 3h 32m |
| Altitude | 38000 |
| Route | GEBON UG443 TIM UP549 ISLAG UP650 ESEDA MEVID1 |
| Aircraft | B737/M-SDE3FGHIRWY/S |
Departure
| Time | 2026-04-29 00:42 |
|---|---|
| Airport | Johan Adolf Pengel International Airport (SMJP) |
Arrival
| Time | 2026-04-29 04:14 |
|---|---|
| Airport | Tocumen International Airport (MPTO) |
| Time | Latitude | Longitude | Altitude | Speed | Heading |
|---|---|---|---|---|---|
| 2026-04-29 00:20 | 5.45526 | -55.19964 | 59 ft | 0 kts | 1° |
| 2026-04-29 00:35 | 5.45510 | -55.19965 | 54 ft | 4 kts | 4° |
| 2026-04-29 00:35 | 5.45483 | -55.19967 | 51 ft | 4 kts | 2° |
| 2026-04-29 00:35 | 5.45460 | -55.19965 | 53 ft | 4 kts | 326° |
| 2026-04-29 00:36 | 5.45447 | -55.19946 | 53 ft | 4 kts | 278° |
| 2026-04-29 00:36 | 5.45445 | -55.19919 | 59 ft | 4 kts | 268° |
| 2026-04-29 00:36 | 5.45446 | -55.19903 | 60 ft | 1 kts | 269° |
| 2026-04-29 00:39 | 5.45446 | -55.19904 | 60 ft | 0 kts | 269° |
| 2026-04-29 00:39 | 5.45446 | -55.19908 | 54 ft | 2 kts | 269° |
| 2026-04-29 00:39 | 5.45445 | -55.19936 | 59 ft | 6 kts | 269° |
| 2026-04-29 00:39 | 5.45445 | -55.19995 | 59 ft | 10 kts | 269° |
| 2026-04-29 00:40 | 5.45445 | -55.20078 | 59 ft | 13 kts | 271° |
| 2026-04-29 00:40 | 5.45446 | -55.20176 | 60 ft | 15 kts | 271° |
| 2026-04-29 00:40 | 5.45443 | -55.20289 | 58 ft | 18 kts | 268° |
| 2026-04-29 00:40 | 5.45370 | -55.20351 | 55 ft | 15 kts | 181° |
| 2026-04-29 00:41 | 5.45282 | -55.20316 | 55 ft | 15 kts | 119° |
| 2026-04-29 00:41 | 5.45278 | -55.20141 | 57 ft | 49 kts | 90° |
| 2026-04-29 00:41 | 5.45283 | -55.19557 | 65 ft | 116 kts | 89° |
| 2026-04-29 00:41 | 5.45294 | -55.18556 | 65 ft | 168 kts | 92° |
| 2026-04-29 00:42 | 5.45267 | -55.17358 | 717 ft | 165 kts | 90° |
| 2026-04-29 00:42 | 5.45243 | -55.16217 | 1490 ft | 159 kts | 91° |
| 2026-04-29 00:42 | 5.45234 | -55.15114 | 2220 ft | 158 kts | 80° |
| 2026-04-29 00:42 | 5.45839 | -55.14187 | 2806 ft | 166 kts | 42° |
| 2026-04-29 00:43 | 5.46914 | -55.13690 | 3362 ft | 183 kts | 11° |
| 2026-04-29 00:43 | 5.48257 | -55.13935 | 3593 ft | 220 kts | 335° |
| 2026-04-29 00:43 | 5.49408 | -55.15090 | 3779 ft | 253 kts | 299° |
| 2026-04-29 00:43 | 5.50067 | -55.16821 | 4051 ft | 279 kts | 289° |
| 2026-04-29 00:44 | 5.50633 | -55.18720 | 4730 ft | 286 kts | 288° |
| 2026-04-29 00:44 | 5.51188 | -55.20650 | 5529 ft | 289 kts | 287° |
| 2026-04-29 00:44 | 5.51751 | -55.22597 | 6352 ft | 292 kts | 287° |
| 2026-04-29 00:44 | 5.52331 | -55.24561 | 7153 ft | 294 kts | 288° |
| 2026-04-29 00:45 | 5.52924 | -55.26540 | 7965 ft | 298 kts | 288° |
| 2026-04-29 00:45 | 5.53533 | -55.28546 | 8811 ft | 301 kts | 288° |
| 2026-04-29 00:45 | 5.54146 | -55.30546 | 9672 ft | 305 kts | 288° |
| 2026-04-29 00:45 | 5.54780 | -55.32599 | 10365 ft | 314 kts | 288° |
| 2026-04-29 00:46 | 5.55458 | -55.34783 | 10582 ft | 340 kts | 288° |
| 2026-04-29 00:46 | 5.56192 | -55.37139 | 10770 ft | 365 kts | 288° |
| 2026-04-29 00:46 | 5.56973 | -55.39643 | 11056 ft | 383 kts | 288° |
| 2026-04-29 00:46 | 5.57777 | -55.42218 | 11648 ft | 390 kts | 288° |
| 2026-04-29 00:47 | 5.58589 | -55.44823 | 12402 ft | 391 kts | 288° |
| 2026-04-29 00:47 | 5.59405 | -55.47437 | 13156 ft | 394 kts | 288° |
| 2026-04-29 00:47 | 5.60218 | -55.50041 | 13832 ft | 398 kts | 288° |
| 2026-04-29 00:47 | 5.61051 | -55.52707 | 14411 ft | 402 kts | 288° |
| 2026-04-29 00:48 | 5.61895 | -55.55407 | 14927 ft | 409 kts | 288° |
| 2026-04-29 00:48 | 5.62751 | -55.58149 | 15457 ft | 414 kts | 288° |
| 2026-04-29 00:48 | 5.63618 | -55.60924 | 15996 ft | 419 kts | 288° |
| 2026-04-29 00:48 | 5.64496 | -55.63733 | 16512 ft | 423 kts | 288° |
| 2026-04-29 00:49 | 5.65383 | -55.66576 | 17016 ft | 428 kts | 288° |
| 2026-04-29 00:49 | 5.66278 | -55.69441 | 17504 ft | 433 kts | 288° |
| 2026-04-29 00:49 | 5.67174 | -55.72309 | 17933 ft | 438 kts | 288° |
| 2026-04-29 00:49 | 5.68092 | -55.75250 | 18342 ft | 443 kts | 288° |
| 2026-04-29 00:50 | 5.69016 | -55.78214 | 18762 ft | 447 kts | 288° |
| 2026-04-29 00:50 | 5.69949 | -55.81205 | 19178 ft | 450 kts | 288° |
| 2026-04-29 00:50 | 5.70887 | -55.84213 | 19583 ft | 453 kts | 288° |
| 2026-04-29 00:50 | 5.71833 | -55.87245 | 19969 ft | 456 kts | 288° |
| 2026-04-29 00:51 | 5.72783 | -55.90295 | 20357 ft | 460 kts | 288° |
| 2026-04-29 00:51 | 5.73741 | -55.93368 | 20726 ft | 463 kts | 288° |
| 2026-04-29 00:51 | 5.74707 | -55.96467 | 21084 ft | 467 kts | 288° |
| 2026-04-29 00:51 | 5.75679 | -55.99585 | 21447 ft | 470 kts | 288° |
| 2026-04-29 00:52 | 5.76657 | -56.02728 | 21795 ft | 473 kts | 288° |
| 2026-04-29 00:52 | 5.77640 | -56.05884 | 22136 ft | 476 kts | 288° |
| 2026-04-29 00:52 | 5.78631 | -56.09066 | 22463 ft | 479 kts | 288° |
| 2026-04-29 00:52 | 5.79628 | -56.12267 | 22779 ft | 482 kts | 288° |
| 2026-04-29 00:53 | 5.80631 | -56.15490 | 23104 ft | 484 kts | 288° |
| 2026-04-29 00:53 | 5.81640 | -56.18733 | 23405 ft | 487 kts | 288° |
| 2026-04-29 00:53 | 5.82652 | -56.21985 | 23661 ft | 490 kts | 288° |
| 2026-04-29 00:53 | 5.83655 | -56.25211 | 23924 ft | 491 kts | 288° |
| 2026-04-29 00:54 | 5.84674 | -56.28488 | 24232 ft | 491 kts | 288° |
| 2026-04-29 00:54 | 5.85691 | -56.31760 | 24534 ft | 491 kts | 287° |
| 2026-04-29 00:54 | 5.86710 | -56.35037 | 24822 ft | 492 kts | 287° |
| 2026-04-29 00:54 | 5.87731 | -56.38325 | 25081 ft | 493 kts | 287° |
| 2026-04-29 00:55 | 5.88756 | -56.41623 | 25340 ft | 494 kts | 287° |
| 2026-04-29 00:55 | 5.89780 | -56.44919 | 25594 ft | 495 kts | 287° |
| 2026-04-29 00:55 | 5.90460 | -56.47109 | 25759 ft | 495 kts | 287° |
| 2026-04-29 00:55 | 5.91835 | -56.51538 | 26088 ft | 496 kts | 287° |
| 2026-04-29 00:56 | 5.92516 | -56.53732 | 26237 ft | 497 kts | 287° |
| 2026-04-29 00:56 | 5.93547 | -56.57054 | 26465 ft | 498 kts | 287° |
| 2026-04-29 00:56 | 5.94577 | -56.60372 | 26699 ft | 498 kts | 287° |
| 2026-04-29 00:56 | 5.95608 | -56.63697 | 26930 ft | 499 kts | 287° |
| 2026-04-29 00:57 | 5.96641 | -56.67028 | 27136 ft | 500 kts | 287° |
| 2026-04-29 00:57 | 5.97677 | -56.70368 | 27355 ft | 501 kts | 287° |
| 2026-04-29 00:57 | 5.98713 | -56.73710 | 27545 ft | 501 kts | 287° |
| 2026-04-29 00:57 | 5.99736 | -56.77011 | 27733 ft | 502 kts | 287° |
| 2026-04-29 00:58 | 6.00777 | -56.80372 | 27922 ft | 503 kts | 287° |
| 2026-04-29 00:58 | 6.01819 | -56.83733 | 28104 ft | 504 kts | 287° |
| 2026-04-29 00:58 | 6.02859 | -56.87093 | 28291 ft | 504 kts | 287° |
| 2026-04-29 00:58 | 6.03901 | -56.90458 | 28494 ft | 504 kts | 287° |
| 2026-04-29 00:59 | 6.04942 | -56.93821 | 28672 ft | 504 kts | 287° |
| 2026-04-29 00:59 | 6.05983 | -56.97187 | 28881 ft | 504 kts | 287° |
| 2026-04-29 00:59 | 6.07021 | -57.00534 | 29142 ft | 502 kts | 287° |
| 2026-04-29 00:59 | 6.08104 | -57.03865 | 29432 ft | 500 kts | 288° |
| 2026-04-29 01:00 | 6.09231 | -57.07177 | 29747 ft | 498 kts | 288° |
| 2026-04-29 01:00 | 6.10369 | -57.10464 | 29975 ft | 498 kts | 288° |
| 2026-04-29 01:00 | 6.11495 | -57.13710 | 30190 ft | 498 kts | 289° |
| 2026-04-29 01:00 | 6.12626 | -57.16983 | 30484 ft | 495 kts | 288° |
| 2026-04-29 01:01 | 6.13748 | -57.20249 | 30762 ft | 493 kts | 288° |
| 2026-04-29 01:01 | 6.14861 | -57.23505 | 31067 ft | 491 kts | 288° |
| 2026-04-29 01:01 | 6.15965 | -57.26745 | 31429 ft | 488 kts | 288° |
| 2026-04-29 01:01 | 6.17061 | -57.29972 | 31808 ft | 484 kts | 288° |
| 2026-04-29 01:02 | 6.18146 | -57.33165 | 32234 ft | 480 kts | 288° |
| 2026-04-29 01:02 | 6.19219 | -57.36324 | 32670 ft | 476 kts | 288° |
| 2026-04-29 01:02 | 6.20286 | -57.39464 | 33122 ft | 472 kts | 289° |
| 2026-04-29 01:02 | 6.21344 | -57.42581 | 33513 ft | 469 kts | 289° |
| 2026-04-29 01:03 | 6.22397 | -57.45681 | 33869 ft | 468 kts | 289° |
| 2026-04-29 01:03 | 6.23435 | -57.48737 | 34168 ft | 467 kts | 289° |
| 2026-04-29 01:03 | 6.24481 | -57.51817 | 34490 ft | 465 kts | 289° |
| 2026-04-29 01:03 | 6.25524 | -57.54891 | 34835 ft | 463 kts | 289° |
| 2026-04-29 01:04 | 6.26562 | -57.57950 | 35171 ft | 461 kts | 289° |
| 2026-04-29 01:04 | 6.27596 | -57.60995 | 35476 ft | 460 kts | 289° |
| 2026-04-29 01:04 | 6.28628 | -57.64037 | 35763 ft | 459 kts | 289° |
| 2026-04-29 01:04 | 6.29656 | -57.67069 | 36075 ft | 457 kts | 289° |
| 2026-04-29 01:05 | 6.30677 | -57.70080 | 36474 ft | 453 kts | 289° |
| 2026-04-29 01:05 | 6.31693 | -57.73076 | 36812 ft | 451 kts | 288° |
| 2026-04-29 01:05 | 6.32702 | -57.76052 | 37070 ft | 450 kts | 288° |
| 2026-04-29 01:05 | 6.33711 | -57.79030 | 37298 ft | 450 kts | 288° |
| 2026-04-29 01:06 | 6.34719 | -57.82004 | 37534 ft | 449 kts | 288° |
| 2026-04-29 01:06 | 6.35725 | -57.84975 | 37810 ft | 447 kts | 288° |
| 2026-04-29 01:06 | 6.36727 | -57.87931 | 37937 ft | 449 kts | 288° |
| 2026-04-29 01:07 | 6.38743 | -57.93885 | 37921 ft | 447 kts | 288° |
| 2026-04-29 01:07 | 6.40723 | -57.99737 | 37923 ft | 441 kts | 288° |
| 2026-04-29 01:08 | 6.42688 | -58.05545 | 37918 ft | 437 kts | 288° |
| 2026-04-29 01:08 | 6.44640 | -58.11318 | 37940 ft | 438 kts | 288° |
| 2026-04-29 01:09 | 6.46619 | -58.17174 | 37950 ft | 446 kts | 288° |
| 2026-04-29 01:09 | 6.48622 | -58.23102 | 37943 ft | 448 kts | 288° |
| 2026-04-29 01:10 | 6.49953 | -58.29203 | 37937 ft | 447 kts | 275° |
| 2026-04-29 01:10 | 6.50387 | -58.35403 | 37939 ft | 447 kts | 274° |
| 2026-04-29 01:11 | 6.50811 | -58.41635 | 37932 ft | 446 kts | 274° |
| 2026-04-29 01:11 | 6.51271 | -58.47858 | 37939 ft | 445 kts | 275° |
| 2026-04-29 01:12 | 6.51745 | -58.54056 | 37939 ft | 443 kts | 275° |
| 2026-04-29 01:12 | 6.52215 | -58.60198 | 37932 ft | 442 kts | 275° |
| 2026-04-29 01:13 | 6.52683 | -58.66355 | 37936 ft | 441 kts | 275° |
| 2026-04-29 01:13 | 6.53150 | -58.72496 | 37938 ft | 439 kts | 275° |
| 2026-04-29 01:14 | 6.53619 | -58.78623 | 37939 ft | 439 kts | 275° |
| 2026-04-29 01:14 | 6.54105 | -58.84736 | 37944 ft | 438 kts | 275° |
| 2026-04-29 01:15 | 6.54586 | -58.90808 | 37944 ft | 438 kts | 275° |
| 2026-04-29 01:15 | 6.55068 | -58.96923 | 37948 ft | 438 kts | 275° |
| 2026-04-29 01:16 | 6.55549 | -59.03036 | 37945 ft | 439 kts | 275° |
| 2026-04-29 01:16 | 6.56030 | -59.09152 | 37949 ft | 439 kts | 275° |
| 2026-04-29 01:17 | 6.56510 | -59.15271 | 37945 ft | 439 kts | 275° |
| 2026-04-29 01:17 | 6.56991 | -59.21398 | 37947 ft | 439 kts | 275° |
| 2026-04-29 01:18 | 6.57470 | -59.27517 | 37952 ft | 439 kts | 275° |
| 2026-04-29 01:18 | 6.58183 | -59.36654 | 37955 ft | 438 kts | 275° |
| 2026-04-29 01:19 | 6.58660 | -59.42768 | 37942 ft | 438 kts | 275° |
| 2026-04-29 01:19 | 6.59135 | -59.48870 | 37948 ft | 437 kts | 275° |
| 2026-04-29 01:20 | 6.59611 | -59.54965 | 37949 ft | 437 kts | 275° |
| 2026-04-29 01:20 | 6.60091 | -59.61059 | 37949 ft | 437 kts | 275° |
| 2026-04-29 01:21 | 6.60570 | -59.67140 | 37950 ft | 436 kts | 275° |
| 2026-04-29 01:21 | 6.61045 | -59.73189 | 37949 ft | 436 kts | 275° |
| 2026-04-29 01:22 | 6.61521 | -59.79269 | 37951 ft | 436 kts | 275° |
| 2026-04-29 01:22 | 6.61996 | -59.85347 | 37950 ft | 436 kts | 275° |
| 2026-04-29 01:23 | 6.62470 | -59.91425 | 37949 ft | 436 kts | 275° |
| 2026-04-29 01:23 | 6.62944 | -59.97499 | 37953 ft | 436 kts | 275° |
| 2026-04-29 01:24 | 6.63417 | -60.03574 | 37951 ft | 436 kts | 275° |
| 2026-04-29 01:24 | 6.63886 | -60.09617 | 37952 ft | 436 kts | 275° |
| 2026-04-29 01:25 | 6.64358 | -60.15698 | 37950 ft | 436 kts | 275° |
| 2026-04-29 01:25 | 6.64829 | -60.21778 | 37957 ft | 436 kts | 275° |
| 2026-04-29 01:26 | 6.65291 | -60.27867 | 37949 ft | 436 kts | 275° |
| 2026-04-29 01:26 | 6.65743 | -60.33960 | 37958 ft | 437 kts | 275° |
| 2026-04-29 01:27 | 6.66195 | -60.40055 | 37955 ft | 437 kts | 275° |
| 2026-04-29 01:27 | 6.66648 | -60.46164 | 37956 ft | 437 kts | 275° |
| 2026-04-29 01:28 | 6.67098 | -60.52230 | 37959 ft | 437 kts | 275° |
| 2026-04-29 01:28 | 6.67550 | -60.58334 | 37959 ft | 438 kts | 275° |
| 2026-04-29 01:29 | 6.68002 | -60.64442 | 37956 ft | 438 kts | 275° |
| 2026-04-29 01:29 | 6.68453 | -60.70559 | 37961 ft | 438 kts | 275° |
| 2026-04-29 01:30 | 6.68904 | -60.76681 | 37960 ft | 438 kts | 275° |
| 2026-04-29 01:30 | 6.69351 | -60.82754 | 37951 ft | 438 kts | 275° |
| 2026-04-29 01:31 | 6.69800 | -60.88868 | 37950 ft | 438 kts | 275° |
| 2026-04-29 01:31 | 6.70248 | -60.94986 | 37953 ft | 439 kts | 275° |
| 2026-04-29 01:32 | 6.70696 | -61.01108 | 37940 ft | 439 kts | 275° |
| 2026-04-29 01:32 | 6.71402 | -61.07196 | 37949 ft | 438 kts | 281° |
| 2026-04-29 01:33 | 6.72579 | -61.13212 | 37934 ft | 438 kts | 282° |
| 2026-04-29 01:33 | 6.73788 | -61.19215 | 37937 ft | 437 kts | 282° |
| 2026-04-29 01:34 | 6.74960 | -61.25230 | 37929 ft | 437 kts | 281° |
| 2026-04-29 01:34 | 6.76100 | -61.31202 | 37927 ft | 437 kts | 281° |
| 2026-04-29 01:35 | 6.77240 | -61.37209 | 37925 ft | 437 kts | 281° |
| 2026-04-29 01:35 | 6.78380 | -61.43223 | 37922 ft | 437 kts | 281° |
| 2026-04-29 01:36 | 6.79518 | -61.49228 | 37920 ft | 437 kts | 281° |
| 2026-04-29 01:36 | 6.80657 | -61.55236 | 37922 ft | 437 kts | 281° |
| 2026-04-29 01:37 | 6.81795 | -61.61244 | 37921 ft | 437 kts | 281° |
| 2026-04-29 01:37 | 6.82925 | -61.67213 | 37924 ft | 437 kts | 281° |
| 2026-04-29 01:38 | 6.84061 | -61.73220 | 37924 ft | 437 kts | 281° |
| 2026-04-29 01:38 | 6.85236 | -61.79217 | 37920 ft | 437 kts | 283° |
| 2026-04-29 01:39 | 6.86683 | -61.85168 | 37923 ft | 437 kts | 284° |
| 2026-04-29 01:39 | 6.88182 | -61.91054 | 37923 ft | 437 kts | 284° |
| 2026-04-29 01:40 | 6.89669 | -61.96989 | 37922 ft | 437 kts | 284° |
| 2026-04-29 01:40 | 6.91133 | -62.02927 | 37922 ft | 437 kts | 284° |
| 2026-04-29 01:41 | 6.92588 | -62.08866 | 37930 ft | 437 kts | 284° |
| 2026-04-29 01:41 | 6.94031 | -62.14769 | 37925 ft | 437 kts | 284° |
| 2026-04-29 01:42 | 6.95248 | -62.19745 | 37927 ft | 437 kts | 284° |
| 2026-04-29 01:42 | 6.96699 | -62.25680 | 37920 ft | 437 kts | 284° |
| 2026-04-29 01:43 | 6.98384 | -62.32581 | 37931 ft | 437 kts | 284° |
| 2026-04-29 01:43 | 6.99599 | -62.37556 | 37928 ft | 437 kts | 284° |
| 2026-04-29 01:44 | 7.01041 | -62.43465 | 37934 ft | 437 kts | 284° |
| 2026-04-29 01:44 | 7.02493 | -62.49418 | 37935 ft | 438 kts | 284° |
| 2026-04-29 01:45 | 7.03944 | -62.55371 | 37930 ft | 438 kts | 284° |
| 2026-04-29 01:45 | 7.05389 | -62.61302 | 37936 ft | 438 kts | 284° |
| 2026-04-29 01:46 | 7.06841 | -62.67265 | 37932 ft | 438 kts | 284° |
| 2026-04-29 01:46 | 7.08293 | -62.73235 | 37937 ft | 439 kts | 284° |
| 2026-04-29 01:47 | 7.09745 | -62.79205 | 37937 ft | 439 kts | 284° |
| 2026-04-29 01:47 | 7.11194 | -62.85166 | 37933 ft | 437 kts | 284° |
| 2026-04-29 01:48 | 7.12635 | -62.91099 | 37928 ft | 435 kts | 284° |
| 2026-04-29 01:48 | 7.14071 | -62.97015 | 37931 ft | 434 kts | 284° |
| 2026-04-29 01:49 | 7.15493 | -63.02875 | 37929 ft | 433 kts | 284° |
| 2026-04-29 01:49 | 7.16922 | -63.08766 | 37933 ft | 433 kts | 284° |
| 2026-04-29 01:50 | 7.18350 | -63.14659 | 37936 ft | 432 kts | 284° |
| 2026-04-29 01:50 | 7.19776 | -63.20549 | 37931 ft | 432 kts | 284° |
| 2026-04-29 01:51 | 7.21202 | -63.26440 | 37933 ft | 432 kts | 284° |
| 2026-04-29 01:51 | 7.22616 | -63.32286 | 37931 ft | 433 kts | 284° |
| 2026-04-29 01:52 | 7.24043 | -63.38186 | 37935 ft | 433 kts | 284° |
| 2026-04-29 01:52 | 7.25467 | -63.44082 | 37940 ft | 433 kts | 284° |
| 2026-04-29 01:53 | 7.26894 | -63.49991 | 37930 ft | 434 kts | 284° |
| 2026-04-29 01:53 | 7.28310 | -63.55861 | 37929 ft | 434 kts | 284° |
| 2026-04-29 01:54 | 7.29736 | -63.61769 | 37932 ft | 434 kts | 284° |
| 2026-04-29 01:54 | 7.31162 | -63.67685 | 37931 ft | 434 kts | 284° |
| 2026-04-29 01:55 | 7.32587 | -63.73601 | 37930 ft | 434 kts | 284° |
| 2026-04-29 01:55 | 7.34012 | -63.79522 | 37924 ft | 435 kts | 284° |
| 2026-04-29 01:56 | 7.35440 | -63.85458 | 37933 ft | 435 kts | 284° |
| 2026-04-29 01:56 | 7.36857 | -63.91350 | 37927 ft | 436 kts | 284° |
| 2026-04-29 01:57 | 7.38283 | -63.97285 | 37927 ft | 436 kts | 284° |
| 2026-04-29 01:57 | 7.39711 | -64.03231 | 37925 ft | 436 kts | 284° |
| 2026-04-29 01:58 | 7.41138 | -64.09175 | 37929 ft | 436 kts | 284° |
| 2026-04-29 01:58 | 7.42555 | -64.15083 | 37925 ft | 436 kts | 284° |
| 2026-04-29 01:59 | 7.43977 | -64.21016 | 37928 ft | 436 kts | 284° |
| 2026-04-29 01:59 | 7.45398 | -64.26948 | 37920 ft | 436 kts | 284° |
| 2026-04-29 02:00 | 7.46820 | -64.32886 | 37925 ft | 435 kts | 284° |
| 2026-04-29 02:00 | 7.48241 | -64.38825 | 37922 ft | 435 kts | 284° |
| 2026-04-29 02:01 | 7.49660 | -64.44760 | 37921 ft | 435 kts | 284° |
| 2026-04-29 02:01 | 7.51071 | -64.50663 | 37920 ft | 435 kts | 283° |
| 2026-04-29 02:02 | 7.52487 | -64.56596 | 37918 ft | 435 kts | 283° |
| 2026-04-29 02:02 | 7.53905 | -64.62536 | 37915 ft | 435 kts | 283° |
| 2026-04-29 02:03 | 7.55315 | -64.68444 | 37914 ft | 436 kts | 283° |
| 2026-04-29 02:03 | 7.56730 | -64.74383 | 37913 ft | 436 kts | 283° |
| 2026-04-29 02:04 | 7.58146 | -64.80329 | 37913 ft | 436 kts | 283° |
| 2026-04-29 02:04 | 7.59564 | -64.86284 | 37911 ft | 437 kts | 283° |
| 2026-04-29 02:05 | 7.60983 | -64.92246 | 37912 ft | 437 kts | 283° |
| 2026-04-29 02:05 | 7.62398 | -64.98200 | 37912 ft | 437 kts | 283° |
| 2026-04-29 02:06 | 7.63815 | -65.04163 | 37912 ft | 437 kts | 283° |
| 2026-04-29 02:06 | 7.65231 | -65.10126 | 37913 ft | 438 kts | 283° |
| 2026-04-29 02:07 | 7.66638 | -65.16056 | 37914 ft | 438 kts | 283° |
| 2026-04-29 02:07 | 7.68058 | -65.22042 | 37912 ft | 439 kts | 283° |
| 2026-04-29 02:08 | 7.69476 | -65.28024 | 37913 ft | 439 kts | 283° |
| 2026-04-29 02:08 | 7.70894 | -65.34012 | 37912 ft | 439 kts | 283° |
| 2026-04-29 02:09 | 7.72313 | -65.40007 | 37913 ft | 440 kts | 283° |
| 2026-04-29 02:09 | 7.73732 | -65.46008 | 37912 ft | 440 kts | 283° |
| 2026-04-29 02:10 | 7.75149 | -65.52004 | 37912 ft | 440 kts | 283° |
| 2026-04-29 02:10 | 7.76567 | -65.58006 | 37912 ft | 439 kts | 283° |
| 2026-04-29 02:11 | 7.77975 | -65.63968 | 37910 ft | 439 kts | 283° |
| 2026-04-29 02:11 | 7.79390 | -65.69969 | 37909 ft | 439 kts | 283° |
| 2026-04-29 02:12 | 7.80808 | -65.75981 | 37909 ft | 439 kts | 283° |
| 2026-04-29 02:12 | 7.82211 | -65.81939 | 37909 ft | 439 kts | 283° |
| 2026-04-29 02:13 | 7.83625 | -65.87941 | 37909 ft | 439 kts | 283° |
| 2026-04-29 02:13 | 7.85034 | -65.93930 | 37913 ft | 439 kts | 283° |
| 2026-04-29 02:14 | 7.86444 | -65.99929 | 37907 ft | 439 kts | 282° |
| 2026-04-29 02:14 | 7.87851 | -66.05917 | 37907 ft | 438 kts | 282° |
| 2026-04-29 02:15 | 7.89248 | -66.11864 | 37906 ft | 438 kts | 282° |
| 2026-04-29 02:15 | 7.90651 | -66.17846 | 37907 ft | 438 kts | 282° |
| 2026-04-29 02:16 | 7.92052 | -66.23819 | 37907 ft | 437 kts | 282° |
| 2026-04-29 02:16 | 7.93451 | -66.29791 | 37907 ft | 437 kts | 282° |
| 2026-04-29 02:17 | 7.94851 | -66.35766 | 37907 ft | 437 kts | 282° |
| 2026-04-29 02:17 | 7.96242 | -66.41710 | 37907 ft | 437 kts | 282° |
| 2026-04-29 02:18 | 7.97637 | -66.47678 | 37908 ft | 437 kts | 282° |
| 2026-04-29 02:18 | 7.99036 | -66.53663 | 37908 ft | 438 kts | 282° |
| 2026-04-29 02:19 | 8.00432 | -66.59643 | 37906 ft | 438 kts | 282° |
| 2026-04-29 02:19 | 8.01829 | -66.65627 | 37910 ft | 438 kts | 282° |
| 2026-04-29 02:20 | 8.03226 | -66.71617 | 37907 ft | 439 kts | 282° |
| 2026-04-29 02:20 | 8.04624 | -66.77614 | 37906 ft | 440 kts | 282° |
| 2026-04-29 02:21 | 8.06023 | -66.83623 | 37909 ft | 440 kts | 282° |
| 2026-04-29 02:21 | 8.07415 | -66.89605 | 37909 ft | 440 kts | 282° |
| 2026-04-29 02:22 | 8.08817 | -66.95633 | 37908 ft | 441 kts | 282° |
| 2026-04-29 02:22 | 8.10220 | -67.01668 | 37910 ft | 442 kts | 282° |
| 2026-04-29 02:23 | 8.11623 | -67.07708 | 37911 ft | 442 kts | 282° |
| 2026-04-29 02:23 | 8.13027 | -67.13760 | 37910 ft | 443 kts | 282° |
| 2026-04-29 02:24 | 8.14430 | -67.19808 | 37910 ft | 443 kts | 282° |
| 2026-04-29 02:25 | 8.16537 | -67.28900 | 37911 ft | 443 kts | 282° |
| 2026-04-29 02:25 | 8.17939 | -67.34955 | 37909 ft | 443 kts | 282° |
| 2026-04-29 02:26 | 8.19341 | -67.41018 | 37913 ft | 443 kts | 282° |
| 2026-04-29 02:26 | 8.20734 | -67.47043 | 37911 ft | 443 kts | 282° |
| 2026-04-29 02:27 | 8.22136 | -67.53109 | 37914 ft | 443 kts | 282° |
| 2026-04-29 02:27 | 8.23533 | -67.59163 | 37912 ft | 443 kts | 282° |
| 2026-04-29 02:28 | 8.24932 | -67.65228 | 37912 ft | 443 kts | 282° |
| 2026-04-29 02:28 | 8.26328 | -67.71282 | 37911 ft | 443 kts | 282° |
| 2026-04-29 02:29 | 8.27487 | -67.76313 | 37911 ft | 442 kts | 282° |
| 2026-04-29 02:29 | 8.28880 | -67.82362 | 37912 ft | 442 kts | 282° |
| 2026-04-29 02:30 | 8.30270 | -67.88408 | 37911 ft | 442 kts | 282° |
| 2026-04-29 02:30 | 8.31662 | -67.94462 | 37911 ft | 442 kts | 282° |
| 2026-04-29 02:31 | 8.33043 | -68.00473 | 37911 ft | 442 kts | 282° |
| 2026-04-29 02:31 | 8.34432 | -68.06526 | 37913 ft | 442 kts | 282° |
| 2026-04-29 02:32 | 8.35820 | -68.12577 | 37911 ft | 442 kts | 282° |
| 2026-04-29 02:32 | 8.37207 | -68.18630 | 37915 ft | 442 kts | 282° |
| 2026-04-29 02:33 | 8.38588 | -68.24655 | 37911 ft | 442 kts | 282° |
| 2026-04-29 02:33 | 8.39973 | -68.30708 | 37913 ft | 442 kts | 282° |
| 2026-04-29 02:34 | 8.41357 | -68.36759 | 37914 ft | 442 kts | 282° |
| 2026-04-29 02:34 | 8.42742 | -68.42819 | 37913 ft | 442 kts | 282° |
| 2026-04-29 02:35 | 8.44124 | -68.48871 | 37914 ft | 442 kts | 282° |
| 2026-04-29 02:35 | 8.45507 | -68.54932 | 37911 ft | 442 kts | 282° |
| 2026-04-29 02:36 | 8.46888 | -68.60989 | 37918 ft | 442 kts | 282° |
| 2026-04-29 02:36 | 8.48267 | -68.67043 | 37928 ft | 442 kts | 282° |
| 2026-04-29 02:37 | 8.49644 | -68.73090 | 37913 ft | 441 kts | 282° |
| 2026-04-29 02:37 | 8.51008 | -68.79084 | 37916 ft | 440 kts | 282° |
| 2026-04-29 02:38 | 8.52380 | -68.85120 | 37915 ft | 440 kts | 282° |
| 2026-04-29 02:38 | 8.53748 | -68.91144 | 37921 ft | 439 kts | 281° |
| 2026-04-29 02:39 | 8.55115 | -68.97165 | 37920 ft | 439 kts | 281° |
| 2026-04-29 02:39 | 8.56469 | -69.03133 | 37919 ft | 438 kts | 281° |
| 2026-04-29 02:40 | 8.57832 | -69.09146 | 37918 ft | 438 kts | 281° |
| 2026-04-29 02:40 | 8.59192 | -69.15154 | 37924 ft | 438 kts | 281° |
| 2026-04-29 02:41 | 8.60552 | -69.21164 | 37929 ft | 439 kts | 281° |
| 2026-04-29 02:41 | 8.61912 | -69.27175 | 37924 ft | 439 kts | 281° |
| 2026-04-29 02:42 | 8.63273 | -69.33201 | 37923 ft | 439 kts | 281° |
| 2026-04-29 02:42 | 8.64635 | -69.39230 | 37929 ft | 440 kts | 281° |
| 2026-04-29 02:43 | 8.65988 | -69.45227 | 37931 ft | 440 kts | 281° |
| 2026-04-29 02:43 | 8.67348 | -69.51259 | 37926 ft | 440 kts | 281° |
| 2026-04-29 02:44 | 8.68709 | -69.57303 | 37929 ft | 441 kts | 281° |
| 2026-04-29 02:44 | 8.70069 | -69.63342 | 37927 ft | 441 kts | 281° |
| 2026-04-29 02:45 | 8.71429 | -69.69390 | 37938 ft | 441 kts | 281° |
| 2026-04-29 02:45 | 8.72781 | -69.75404 | 37934 ft | 441 kts | 281° |
| 2026-04-29 02:46 | 8.74140 | -69.81453 | 37937 ft | 442 kts | 281° |
| 2026-04-29 02:46 | 8.75499 | -69.87511 | 37937 ft | 442 kts | 281° |
| 2026-04-29 02:47 | 8.76859 | -69.93574 | 37949 ft | 442 kts | 281° |
| 2026-04-29 02:47 | 8.78218 | -69.99639 | 37948 ft | 442 kts | 281° |
| 2026-04-29 02:48 | 8.79576 | -70.05705 | 37950 ft | 442 kts | 281° |
| 2026-04-29 02:48 | 8.80935 | -70.11778 | 37969 ft | 443 kts | 281° |
| 2026-04-29 02:49 | 8.82284 | -70.17816 | 37959 ft | 443 kts | 281° |
| 2026-04-29 02:49 | 8.83642 | -70.23897 | 37991 ft | 443 kts | 282° |
| 2026-04-29 02:50 | 8.85001 | -70.29985 | 38026 ft | 444 kts | 282° |
| 2026-04-29 02:50 | 8.86361 | -70.36080 | 38054 ft | 444 kts | 282° |
| 2026-04-29 02:51 | 8.87721 | -70.42184 | 38055 ft | 445 kts | 282° |
| 2026-04-29 02:51 | 8.89073 | -70.48260 | 38074 ft | 445 kts | 282° |
| 2026-04-29 02:52 | 8.90433 | -70.54370 | 38090 ft | 445 kts | 282° |
| 2026-04-29 02:52 | 8.91789 | -70.60473 | 38082 ft | 444 kts | 282° |
| 2026-04-29 02:53 | 8.93142 | -70.66562 | 38097 ft | 443 kts | 282° |
| 2026-04-29 02:53 | 8.94491 | -70.72644 | 38091 ft | 441 kts | 282° |
| 2026-04-29 02:54 | 8.95834 | -70.78699 | 38101 ft | 441 kts | 282° |
| 2026-04-29 02:54 | 8.97165 | -70.84705 | 38089 ft | 440 kts | 282° |
| 2026-04-29 02:55 | 8.98505 | -70.90760 | 38081 ft | 440 kts | 282° |
| 2026-04-29 02:55 | 8.99842 | -70.96802 | 38071 ft | 441 kts | 282° |
| 2026-04-29 02:56 | 9.01181 | -71.02861 | 38031 ft | 441 kts | 282° |
| 2026-04-29 02:56 | 9.02521 | -71.08927 | 38029 ft | 441 kts | 282° |
| 2026-04-29 02:57 | 9.03859 | -71.14993 | 37978 ft | 442 kts | 282° |
| 2026-04-29 02:57 | 9.05189 | -71.21021 | 37938 ft | 442 kts | 282° |
| 2026-04-29 02:58 | 9.06528 | -71.27102 | 37941 ft | 442 kts | 282° |
| 2026-04-29 02:58 | 9.07865 | -71.33176 | 37917 ft | 443 kts | 282° |
| 2026-04-29 02:59 | 9.09205 | -71.39269 | 37918 ft | 443 kts | 282° |
| 2026-04-29 02:59 | 9.10534 | -71.45315 | 37925 ft | 443 kts | 282° |
| 2026-04-29 03:00 | 9.11870 | -71.51401 | 37918 ft | 443 kts | 282° |
| 2026-04-29 03:00 | 9.13205 | -71.57484 | 37908 ft | 443 kts | 282° |
| 2026-04-29 03:01 | 9.14541 | -71.63577 | 37914 ft | 443 kts | 282° |
| 2026-04-29 03:01 | 9.15877 | -71.69680 | 37915 ft | 444 kts | 282° |
| 2026-04-29 03:02 | 9.17208 | -71.75758 | 37907 ft | 445 kts | 282° |
| 2026-04-29 03:02 | 9.18547 | -71.81882 | 37904 ft | 445 kts | 282° |
| 2026-04-29 03:03 | 9.19886 | -71.88013 | 37905 ft | 446 kts | 282° |
| 2026-04-29 03:03 | 9.21226 | -71.94150 | 37890 ft | 447 kts | 281° |
| 2026-04-29 03:04 | 9.22561 | -72.00272 | 37914 ft | 448 kts | 281° |
| 2026-04-29 03:04 | 9.23908 | -72.06454 | 37907 ft | 450 kts | 281° |
| 2026-04-29 03:05 | 9.25258 | -72.12653 | 37912 ft | 451 kts | 281° |
| 2026-04-29 03:05 | 9.26608 | -72.18859 | 37913 ft | 452 kts | 281° |
| 2026-04-29 03:06 | 9.27959 | -72.25075 | 37912 ft | 452 kts | 281° |
| 2026-04-29 03:06 | 9.29303 | -72.31261 | 37906 ft | 453 kts | 281° |
| 2026-04-29 03:07 | 9.30655 | -72.37494 | 37917 ft | 454 kts | 281° |
| 2026-04-29 03:07 | 9.32009 | -72.43739 | 37914 ft | 454 kts | 281° |
| 2026-04-29 03:08 | 9.33364 | -72.49996 | 37912 ft | 455 kts | 281° |
| 2026-04-29 03:08 | 9.34719 | -72.56256 | 37922 ft | 455 kts | 281° |
| 2026-04-29 03:09 | 9.36070 | -72.62506 | 37905 ft | 455 kts | 281° |
| 2026-04-29 03:09 | 9.37421 | -72.68759 | 37925 ft | 454 kts | 281° |
| 2026-04-29 03:10 | 9.38770 | -72.75011 | 37930 ft | 455 kts | 281° |
| 2026-04-29 03:10 | 9.40120 | -72.81271 | 37945 ft | 455 kts | 281° |
| 2026-04-29 03:11 | 9.41466 | -72.87518 | 37957 ft | 453 kts | 280° |
| 2026-04-29 03:11 | 9.42806 | -72.93741 | 37941 ft | 451 kts | 280° |
| 2026-04-29 03:12 | 9.44129 | -72.99896 | 37967 ft | 449 kts | 281° |
| 2026-04-29 03:12 | 9.45455 | -73.06070 | 37961 ft | 448 kts | 281° |
| 2026-04-29 03:13 | 9.46780 | -73.12241 | 37957 ft | 447 kts | 281° |
| 2026-04-29 03:13 | 9.48132 | -73.18354 | 37960 ft | 447 kts | 284° |
| 2026-04-29 03:14 | 9.50361 | -73.24245 | 37945 ft | 449 kts | 291° |
| 2026-04-29 03:14 | 9.52789 | -73.30074 | 37952 ft | 449 kts | 291° |
| 2026-04-29 03:15 | 9.55194 | -73.35933 | 37939 ft | 451 kts | 290° |
| 2026-04-29 03:15 | 9.57577 | -73.41819 | 37919 ft | 452 kts | 290° |
| 2026-04-29 03:16 | 9.59944 | -73.47687 | 37916 ft | 453 kts | 290° |
| 2026-04-29 03:16 | 9.62333 | -73.53610 | 37903 ft | 454 kts | 290° |
| 2026-04-29 03:17 | 9.64727 | -73.59547 | 37905 ft | 455 kts | 290° |
| 2026-04-29 03:17 | 9.66719 | -73.64486 | 37903 ft | 456 kts | 290° |
| 2026-04-29 03:18 | 9.68377 | -73.70630 | 37907 ft | 450 kts | 274° |
| 2026-04-29 03:18 | 9.68144 | -73.76932 | 37904 ft | 447 kts | 259° |
| 2026-04-29 03:19 | 9.67071 | -73.83140 | 37901 ft | 447 kts | 258° |
| 2026-04-29 03:19 | 9.65980 | -73.89304 | 37892 ft | 447 kts | 259° |
| 2026-04-29 03:20 | 9.64919 | -73.95516 | 37896 ft | 447 kts | 259° |
| 2026-04-29 03:20 | 9.63880 | -74.01723 | 37892 ft | 447 kts | 258° |
| 2026-04-29 03:21 | 9.62844 | -74.07941 | 37897 ft | 447 kts | 258° |
| 2026-04-29 03:21 | 9.61814 | -74.14110 | 37905 ft | 447 kts | 258° |
| 2026-04-29 03:22 | 9.60777 | -74.20310 | 37902 ft | 446 kts | 258° |
| 2026-04-29 03:22 | 9.59735 | -74.26526 | 37896 ft | 446 kts | 258° |
| 2026-04-29 03:23 | 9.58695 | -74.32727 | 37899 ft | 446 kts | 258° |
| 2026-04-29 03:23 | 9.57655 | -74.38926 | 37903 ft | 446 kts | 257° |
| 2026-04-29 03:24 | 9.56613 | -74.45121 | 37891 ft | 445 kts | 257° |
| 2026-04-29 03:24 | 9.55573 | -74.51300 | 37908 ft | 446 kts | 257° |
| 2026-04-29 03:24 | 9.55050 | -74.54401 | 38087 ft | 447 kts | 257° |
| 2026-04-29 03:25 | 9.54536 | -74.57456 | 38411 ft | 444 kts | 257° |
| 2026-04-29 03:25 | 9.54017 | -74.60539 | 38708 ft | 442 kts | 257° |
| 2026-04-29 03:25 | 9.53499 | -74.63609 | 38940 ft | 441 kts | 257° |
| 2026-04-29 03:25 | 9.52982 | -74.66670 | 39150 ft | 441 kts | 257° |
| 2026-04-29 03:26 | 9.52464 | -74.69737 | 39361 ft | 440 kts | 257° |
| 2026-04-29 03:26 | 9.51948 | -74.72794 | 39580 ft | 439 kts | 257° |
| 2026-04-29 03:26 | 9.51433 | -74.75842 | 39793 ft | 438 kts | 257° |
| 2026-04-29 03:27 | 9.50398 | -74.81954 | 39895 ft | 441 kts | 257° |
| 2026-04-29 03:27 | 9.49349 | -74.88065 | 39884 ft | 440 kts | 257° |
| 2026-04-29 03:28 | 9.48249 | -74.94157 | 39907 ft | 444 kts | 257° |
| 2026-04-29 03:28 | 9.47126 | -75.00333 | 39900 ft | 447 kts | 257° |
| 2026-04-29 03:29 | 9.46001 | -75.06550 | 39902 ft | 449 kts | 257° |
| 2026-04-29 03:29 | 9.44881 | -75.12759 | 39893 ft | 447 kts | 257° |
| 2026-04-29 03:30 | 9.43769 | -75.18918 | 39880 ft | 445 kts | 257° |
| 2026-04-29 03:30 | 9.42656 | -75.25079 | 39880 ft | 443 kts | 257° |
| 2026-04-29 03:31 | 9.40994 | -75.34260 | 39883 ft | 440 kts | 257° |
| 2026-04-29 03:31 | 9.39889 | -75.40358 | 39887 ft | 439 kts | 257° |
| 2026-04-29 03:32 | 9.38795 | -75.46390 | 39897 ft | 437 kts | 256° |
| 2026-04-29 03:32 | 9.37698 | -75.52434 | 39884 ft | 435 kts | 256° |
| 2026-04-29 03:33 | 9.36605 | -75.58444 | 39887 ft | 433 kts | 256° |
| 2026-04-29 03:33 | 9.35515 | -75.64434 | 39888 ft | 431 kts | 256° |
| 2026-04-29 03:34 | 9.34428 | -75.70402 | 39890 ft | 430 kts | 256° |
| 2026-04-29 03:34 | 9.33348 | -75.76324 | 39891 ft | 430 kts | 256° |
| 2026-04-29 03:35 | 9.32258 | -75.82292 | 39899 ft | 430 kts | 256° |
| 2026-04-29 03:35 | 9.31171 | -75.88244 | 39889 ft | 429 kts | 256° |
| 2026-04-29 03:36 | 9.30084 | -75.94191 | 39888 ft | 429 kts | 256° |
| 2026-04-29 03:36 | 9.29004 | -76.00091 | 39891 ft | 429 kts | 256° |
| 2026-04-29 03:37 | 9.27916 | -76.06032 | 39891 ft | 428 kts | 256° |
| 2026-04-29 03:37 | 9.26829 | -76.11958 | 39889 ft | 428 kts | 256° |
| 2026-04-29 03:38 | 9.25740 | -76.17891 | 39898 ft | 428 kts | 256° |
| 2026-04-29 03:38 | 9.24653 | -76.23808 | 39888 ft | 428 kts | 256° |
| 2026-04-29 03:39 | 9.23569 | -76.29701 | 39891 ft | 427 kts | 256° |
| 2026-04-29 03:39 | 9.22479 | -76.35624 | 39889 ft | 427 kts | 256° |
| 2026-04-29 03:40 | 9.21389 | -76.41540 | 39890 ft | 427 kts | 256° |
| 2026-04-29 03:40 | 9.20297 | -76.47463 | 39878 ft | 427 kts | 256° |
| 2026-04-29 03:41 | 9.19212 | -76.53339 | 39898 ft | 427 kts | 256° |
| 2026-04-29 03:41 | 9.18116 | -76.59268 | 39894 ft | 428 kts | 256° |
| 2026-04-29 03:42 | 9.17019 | -76.65202 | 39891 ft | 429 kts | 256° |
| 2026-04-29 03:42 | 9.15918 | -76.71149 | 39891 ft | 429 kts | 256° |
| 2026-04-29 03:43 | 9.14818 | -76.77089 | 39891 ft | 430 kts | 256° |
| 2026-04-29 03:43 | 9.13714 | -76.83041 | 39892 ft | 430 kts | 256° |
| 2026-04-29 03:44 | 9.12617 | -76.88949 | 39896 ft | 430 kts | 256° |
| 2026-04-29 03:44 | 9.11513 | -76.94893 | 39893 ft | 429 kts | 256° |
| 2026-04-29 03:45 | 9.10412 | -77.00816 | 39896 ft | 428 kts | 256° |
| 2026-04-29 03:45 | 9.09310 | -77.06731 | 39896 ft | 427 kts | 256° |
| 2026-04-29 03:46 | 9.08209 | -77.12641 | 39899 ft | 427 kts | 256° |
| 2026-04-29 03:46 | 9.07107 | -77.18551 | 39899 ft | 427 kts | 256° |
| 2026-04-29 03:47 | 9.06014 | -77.24410 | 39910 ft | 426 kts | 256° |
| 2026-04-29 03:47 | 9.04911 | -77.30311 | 39902 ft | 426 kts | 256° |
| 2026-04-29 03:48 | 9.03812 | -77.36190 | 39901 ft | 425 kts | 256° |
| 2026-04-29 03:48 | 9.03021 | -77.42135 | 39902 ft | 429 kts | 265° |
| 2026-04-29 03:49 | 9.03602 | -77.48191 | 39912 ft | 434 kts | 273° |
| 2026-04-29 03:49 | 9.04477 | -77.54237 | 39911 ft | 434 kts | 273° |
| 2026-04-29 03:50 | 9.05332 | -77.60240 | 39910 ft | 434 kts | 273° |
| 2026-04-29 03:50 | 9.06168 | -77.66295 | 39909 ft | 434 kts | 273° |
| 2026-04-29 03:51 | 9.06991 | -77.72342 | 39913 ft | 434 kts | 273° |
| 2026-04-29 03:51 | 9.07811 | -77.78391 | 39912 ft | 434 kts | 273° |
| 2026-04-29 03:52 | 9.08630 | -77.84441 | 39921 ft | 434 kts | 273° |
| 2026-04-29 03:52 | 9.09450 | -77.90503 | 39920 ft | 434 kts | 273° |
| 2026-04-29 03:53 | 9.10269 | -77.96560 | 39927 ft | 435 kts | 273° |
| 2026-04-29 03:53 | 9.11083 | -78.02584 | 39932 ft | 434 kts | 273° |
| 2026-04-29 03:54 | 9.11900 | -78.08643 | 39932 ft | 434 kts | 273° |
| 2026-04-29 03:54 | 9.12714 | -78.14691 | 39916 ft | 433 kts | 273° |
| 2026-04-29 03:55 | 9.13529 | -78.20758 | 39452 ft | 439 kts | 273° |
| 2026-04-29 03:55 | 9.13939 | -78.23816 | 38895 ft | 438 kts | 273° |
| 2026-04-29 03:55 | 9.14344 | -78.26825 | 38206 ft | 437 kts | 273° |
| 2026-04-29 03:56 | 9.14755 | -78.29878 | 37452 ft | 437 kts | 273° |
| 2026-04-29 03:56 | 9.15164 | -78.32924 | 36715 ft | 436 kts | 273° |
| 2026-04-29 03:56 | 9.15572 | -78.35972 | 35983 ft | 437 kts | 273° |
| 2026-04-29 03:56 | 9.15982 | -78.39039 | 35130 ft | 440 kts | 273° |
| 2026-04-29 03:57 | 9.16394 | -78.42127 | 34252 ft | 445 kts | 273° |
| 2026-04-29 03:57 | 9.16811 | -78.45253 | 33253 ft | 451 kts | 274° |
| 2026-04-29 03:57 | 9.17232 | -78.48411 | 32250 ft | 455 kts | 274° |
| 2026-04-29 03:57 | 9.17652 | -78.51559 | 31224 ft | 459 kts | 275° |
| 2026-04-29 03:58 | 9.18082 | -78.54779 | 30150 ft | 464 kts | 275° |
| 2026-04-29 03:58 | 9.18517 | -78.58033 | 28870 ft | 469 kts | 275° |
| 2026-04-29 03:58 | 9.18954 | -78.61308 | 27874 ft | 467 kts | 276° |
| 2026-04-29 03:58 | 9.19389 | -78.64554 | 26953 ft | 464 kts | 276° |
| 2026-04-29 03:59 | 9.19819 | -78.67776 | 26092 ft | 459 kts | 276° |
| 2026-04-29 03:59 | 9.20246 | -78.70973 | 25227 ft | 455 kts | 276° |
| 2026-04-29 03:59 | 9.20667 | -78.74138 | 24374 ft | 452 kts | 276° |
| 2026-04-29 03:59 | 9.21085 | -78.77289 | 23514 ft | 450 kts | 276° |
| 2026-04-29 04:00 | 9.21495 | -78.80381 | 22520 ft | 448 kts | 277° |
| 2026-04-29 04:00 | 9.21907 | -78.83490 | 21661 ft | 442 kts | 277° |
| 2026-04-29 04:00 | 9.22314 | -78.86559 | 20771 ft | 438 kts | 277° |
| 2026-04-29 04:00 | 9.22719 | -78.89608 | 19911 ft | 434 kts | 277° |
| 2026-04-29 04:01 | 9.23118 | -78.92626 | 19031 ft | 431 kts | 277° |
| 2026-04-29 04:01 | 9.23514 | -78.95625 | 18122 ft | 429 kts | 277° |
| 2026-04-29 04:01 | 9.23909 | -78.98610 | 17148 ft | 426 kts | 277° |
| 2026-04-29 04:01 | 9.24300 | -79.01568 | 16282 ft | 420 kts | 277° |
| 2026-04-29 04:02 | 9.24685 | -79.04482 | 15430 ft | 415 kts | 278° |
| 2026-04-29 04:02 | 9.25065 | -79.07365 | 14590 ft | 411 kts | 277° |
| 2026-04-29 04:02 | 9.25253 | -79.10236 | 13737 ft | 408 kts | 264° |
| 2026-04-29 04:02 | 9.24515 | -79.12976 | 12835 ft | 404 kts | 244° |
| 2026-04-29 04:03 | 9.23002 | -79.15316 | 12406 ft | 390 kts | 229° |
| 2026-04-29 04:03 | 9.21037 | -79.17091 | 11827 ft | 381 kts | 215° |
| 2026-04-29 04:03 | 9.18858 | -79.18557 | 11496 ft | 367 kts | 213° |
| 2026-04-29 04:03 | 9.16765 | -79.19910 | 11376 ft | 348 kts | 212° |
| 2026-04-29 04:04 | 9.14771 | -79.21200 | 11245 ft | 331 kts | 213° |
| 2026-04-29 04:04 | 9.12877 | -79.22441 | 11135 ft | 316 kts | 213° |
| 2026-04-29 04:04 | 9.11078 | -79.23632 | 11050 ft | 302 kts | 213° |
| 2026-04-29 04:04 | 9.09348 | -79.24783 | 10804 ft | 295 kts | 213° |
| 2026-04-29 04:05 | 9.08218 | -79.25538 | 10556 ft | 294 kts | 213° |
| 2026-04-29 04:05 | 9.06507 | -79.26683 | 10155 ft | 294 kts | 213° |
| 2026-04-29 04:05 | 9.04226 | -79.28209 | 9673 ft | 292 kts | 213° |
| 2026-04-29 04:05 | 9.03105 | -79.28958 | 9416 ft | 291 kts | 213° |
| 2026-04-29 04:06 | 9.01394 | -79.30049 | 9025 ft | 290 kts | 210° |
| 2026-04-29 04:06 | 8.99625 | -79.31025 | 8634 ft | 289 kts | 208° |
| 2026-04-29 04:06 | 8.97847 | -79.31972 | 8261 ft | 288 kts | 208° |
| 2026-04-29 04:06 | 8.96076 | -79.32918 | 7891 ft | 286 kts | 208° |
| 2026-04-29 04:07 | 8.94339 | -79.33854 | 7514 ft | 286 kts | 208° |
| 2026-04-29 04:07 | 8.92588 | -79.34804 | 7120 ft | 286 kts | 208° |
| 2026-04-29 04:07 | 8.90830 | -79.35762 | 6752 ft | 286 kts | 208° |
| 2026-04-29 04:07 | 8.89086 | -79.36713 | 6435 ft | 284 kts | 208° |
| 2026-04-29 04:08 | 8.87364 | -79.37668 | 6097 ft | 282 kts | 213° |
| 2026-04-29 04:08 | 8.86015 | -79.39042 | 5703 ft | 271 kts | 244° |
| 2026-04-29 04:08 | 8.85505 | -79.40774 | 5608 ft | 248 kts | 270° |
| 2026-04-29 04:08 | 8.85653 | -79.42443 | 5361 ft | 233 kts | 289° |
| 2026-04-29 04:09 | 8.86293 | -79.43917 | 4864 ft | 230 kts | 303° |
| 2026-04-29 04:09 | 8.87166 | -79.45355 | 4024 ft | 247 kts | 306° |
| 2026-04-29 04:09 | 8.88146 | -79.46779 | 3518 ft | 242 kts | 318° |
| 2026-04-29 04:09 | 8.89543 | -79.47508 | 3345 ft | 218 kts | 357° |
| 2026-04-29 04:10 | 8.90968 | -79.47216 | 3051 ft | 208 kts | 26° |
| 2026-04-29 04:10 | 8.92199 | -79.46510 | 2782 ft | 198 kts | 30° |
| 2026-04-29 04:10 | 8.93348 | -79.45822 | 2528 ft | 186 kts | 29° |
| 2026-04-29 04:10 | 8.94432 | -79.45193 | 2281 ft | 172 kts | 29° |
| 2026-04-29 04:11 | 8.95457 | -79.44604 | 2082 ft | 169 kts | 28° |
| 2026-04-29 04:11 | 8.96482 | -79.44017 | 1837 ft | 169 kts | 28° |
| 2026-04-29 04:11 | 8.97476 | -79.43447 | 1644 ft | 155 kts | 28° |
| 2026-04-29 04:11 | 8.98357 | -79.42941 | 1427 ft | 138 kts | 27° |
| 2026-04-29 04:12 | 8.99151 | -79.42487 | 1262 ft | 130 kts | 27° |
| 2026-04-29 04:12 | 8.99918 | -79.42048 | 1096 ft | 124 kts | 27° |
| 2026-04-29 04:12 | 9.00670 | -79.41617 | 947 ft | 126 kts | 27° |
| 2026-04-29 04:12 | 9.01449 | -79.41174 | 788 ft | 130 kts | 26° |
| 2026-04-29 04:13 | 9.02235 | -79.40712 | 624 ft | 131 kts | 24° |
| 2026-04-29 04:13 | 9.03027 | -79.40260 | 447 ft | 130 kts | 27° |
| 2026-04-29 04:13 | 9.03805 | -79.39805 | 286 ft | 128 kts | 26° |
| 2026-04-29 04:13 | 9.04574 | -79.39369 | 137 ft | 125 kts | 26° |
| 2026-04-29 04:14 | 9.05330 | -79.38936 | 48 ft | 119 kts | 26° |
| 2026-04-29 04:14 | 9.05901 | -79.38613 | 46 ft | 63 kts | 29° |
| 2026-04-29 04:14 | 9.06181 | -79.38454 | 46 ft | 41 kts | 29° |
| 2026-04-29 04:14 | 9.06416 | -79.38388 | 46 ft | 19 kts | 0° |
| 2026-04-29 04:15 | 9.06533 | -79.38389 | 47 ft | 15 kts | 359° |
| 2026-04-29 04:15 | 9.06626 | -79.38403 | 46 ft | 10 kts | 317° |
| 2026-04-29 04:15 | 9.06659 | -79.38454 | 49 ft | 9 kts | 302° |
| 2026-04-29 04:15 | 9.06656 | -79.38498 | 47 ft | 6 kts | 207° |
| 2026-04-29 04:16 | 9.06615 | -79.38510 | 47 ft | 6 kts | 202° |
| 2026-04-29 04:16 | 9.06577 | -79.38532 | 50 ft | 7 kts | 209° |
| 2026-04-29 04:16 | 9.06524 | -79.38562 | 50 ft | 11 kts | 209° |
| 2026-04-29 04:16 | 9.06448 | -79.38606 | 50 ft | 14 kts | 212° |
| 2026-04-29 04:17 | 9.06370 | -79.38652 | 49 ft | 11 kts | 216° |
| 2026-04-29 04:17 | 9.06382 | -79.38718 | 49 ft | 9 kts | 299° |
| 2026-04-29 04:17 | 9.06408 | -79.38785 | 49 ft | 12 kts | 261° |
| 2026-04-29 04:17 | 9.06334 | -79.38821 | 46 ft | 12 kts | 191° |
| 2026-04-29 04:18 | 9.06239 | -79.38839 | 47 ft | 15 kts | 191° |
| 2026-04-29 04:18 | 9.06159 | -79.38873 | 47 ft | 12 kts | 215° |
| 2026-04-29 04:18 | 9.06112 | -79.38938 | 47 ft | 10 kts | 239° |
| 2026-04-29 04:18 | 9.06069 | -79.38995 | 47 ft | 10 kts | 231° |
| 2026-04-29 04:19 | 9.06035 | -79.39026 | 48 ft | 3 kts | 217° |
| 2026-04-29 04:19 | 9.06017 | -79.39040 | 48 ft | 0 kts | 218° |
| 2026-04-29 04:19 | 9.06016 | -79.39041 | 48 ft | 1 kts | 218° |
| 2026-04-29 04:20 | 9.06004 | -79.39044 | 48 ft | 2 kts | 184° |
| 2026-04-29 04:20 | 9.05988 | -79.39035 | 48 ft | 3 kts | 135° |
| 2026-04-29 04:20 | 9.05970 | -79.39010 | 48 ft | 5 kts | 121° |
| 2026-04-29 04:20 | 9.05954 | -79.38983 | 48 ft | 3 kts | 120° |
| 2026-04-29 04:21 | 9.05948 | -79.38972 | 48 ft | 0 kts | 120° |